Terminal Aerodrome Forecast
Issued by NWS Goodland, KS

Home | Current Version | Previous Version | Text Only | Print | Product List | Glossary On
Versions: 1 2 3 4 5 6 7 8 9 10 11 12 13 14 15
000
FTUS43 KGLD 290500
TAFGLD
TAF
KGLD 290528Z 2906/3006 18010KT P6SM SCT250
     FM291200 17006KT P6SM SCT010
     FM291600 18013KT P6SM SCT250
     FM292000 14010G21KT P6SM VCTS SCT080CB
     FM300200 14012KT P6SM -TSRA BKN050CB=

USA.gov is the U.S. government's official web portal to all federal, state and local government web resources and services.